sensor_id;sensor_type;location;lat;lon;timestamp;P1;durP1;ratioP1;P2;durP2;ratioP2
68457;SDS011;65384;52.016;5.428;2023-03-20T00:00:44;13.55;;;5.78;;
68457;SDS011;65384;52.016;5.428;2023-03-20T00:03:11;16.55;;;6.50;;
68457;SDS011;65384;52.016;5.428;2023-03-20T00:05:37;19.73;;;6.72;;
68457;SDS011;65384;52.016;5.428;2023-03-20T00:08:03;17.10;;;6.35;;
68457;SDS011;65384;52.016;5.428;2023-03-20T00:10:33;18.63;;;7.15;;
68457;SDS011;65384;52.016;5.428;2023-03-20T00:13:01;17.83;;;7.20;;
68457;SDS011;65384;52.016;5.428;2023-03-20T00:15:31;20.38;;;7.32;;
68457;SDS011;65384;52.016;5.428;2023-03-20T00:18:00;21.17;;;7.63;;
68457;SDS011;65384;52.016;5.428;2023-03-20T00:20:26;28.35;;;8.60;;
68457;SDS011;65384;52.016;5.428;2023-03-20T00:22:51;23.15;;;9.00;;
68457;SDS011;65384;52.016;5.428;2023-03-20T00:25:18;20.42;;;8.77;;
68457;SDS011;65384;52.016;5.428;2023-03-20T00:27:46;24.13;;;8.68;;
68457;SDS011;65384;52.016;5.428;2023-03-20T00:32:45;21.23;;;7.97;;
68457;SDS011;65384;52.016;5.428;2023-03-20T00:35:21;18.73;;;7.65;;
68457;SDS011;65384;52.016;5.428;2023-03-20T00:37:49;17.52;;;6.78;;
68457;SDS011;65384;52.016;5.428;2023-03-20T00:40:15;16.40;;;6.22;;
68457;SDS011;65384;52.016;5.428;2023-03-20T00:42:41;24.90;;;6.38;;
68457;SDS011;65384;52.016;5.428;2023-03-20T00:45:12;17.17;;;5.80;;
68457;SDS011;65384;52.016;5.428;2023-03-20T00:47:40;19.08;;;5.90;;
68457;SDS011;65384;52.016;5.428;2023-03-20T00:50:13;16.05;;;5.72;;
68457;SDS011;65384;52.016;5.428;2023-03-20T00:52:45;15.13;;;5.75;;
68457;SDS011;65384;52.016;5.428;2023-03-20T00:55:10;17.02;;;5.53;;
68457;SDS011;65384;52.016;5.428;2023-03-20T00:57:40;16.45;;;5.53;;
68457;SDS011;65384;52.016;5.428;2023-03-20T01:02:47;17.25;;;5.53;;
68457;SDS011;65384;52.016;5.428;2023-03-20T01:05:13;15.75;;;5.05;;
68457;SDS011;65384;52.016;5.428;2023-03-20T01:07:39;15.38;;;5.15;;
68457;SDS011;65384;52.016;5.428;2023-03-20T01:10:05;16.40;;;5.38;;
68457;SDS011;65384;52.016;5.428;2023-03-20T01:12:31;14.23;;;5.13;;
68457;SDS011;65384;52.016;5.428;2023-03-20T01:14:57;16.52;;;5.43;;
68457;SDS011;65384;52.016;5.428;2023-03-20T01:17:23;15.60;;;5.18;;
68457;SDS011;65384;52.016;5.428;2023-03-20T01:19:49;19.98;;;5.32;;
68457;SDS011;65384;52.016;5.428;2023-03-20T01:22:15;13.30;;;4.57;;
68457;SDS011;65384;52.016;5.428;2023-03-20T01:24:43;14.85;;;5.30;;
68457;SDS011;65384;52.016;5.428;2023-03-20T01:27:16;14.10;;;4.85;;
68457;SDS011;65384;52.016;5.428;2023-03-20T01:29:42;12.68;;;5.00;;
68457;SDS011;65384;52.016;5.428;2023-03-20T01:32:11;12.88;;;5.30;;
68457;SDS011;65384;52.016;5.428;2023-03-20T01:34:41;12.95;;;4.82;;
68457;SDS011;65384;52.016;5.428;2023-03-20T01:37:11;18.52;;;5.20;;
68457;SDS011;65384;52.016;5.428;2023-03-20T01:39:38;12.68;;;4.30;;
68457;SDS011;65384;52.016;5.428;2023-03-20T01:42:04;15.60;;;4.63;;
68457;SDS011;65384;52.016;5.428;2023-03-20T01:44:30;12.52;;;4.50;;
68457;SDS011;65384;52.016;5.428;2023-03-20T01:46:58;9.18;;;3.60;;
68457;SDS011;65384;52.016;5.428;2023-03-20T01:51:50;11.10;;;3.90;;
68457;SDS011;65384;52.016;5.428;2023-03-20T01:54:17;15.82;;;4.57;;
68457;SDS011;65384;52.016;5.428;2023-03-20T01:56:49;9.60;;;3.60;;
68457;SDS011;65384;52.016;5.428;2023-03-20T01:59:30;8.18;;;3.33;;
68457;SDS011;65384;52.016;5.428;2023-03-20T02:04:34;9.30;;;3.83;;
68457;SDS011;65384;52.016;5.428;2023-03-20T02:07:02;9.95;;;3.78;;
68457;SDS011;65384;52.016;5.428;2023-03-20T02:09:28;10.13;;;4.03;;
68457;SDS011;65384;52.016;5.428;2023-03-20T02:11:53;12.90;;;4.40;;
68457;SDS011;65384;52.016;5.428;2023-03-20T02:14:20;10.82;;;3.75;;
68457;SDS011;65384;52.016;5.428;2023-03-20T02:16:46;11.75;;;4.30;;
68457;SDS011;65384;52.016;5.428;2023-03-20T02:19:32;15.27;;;4.35;;
68457;SDS011;65384;52.016;5.428;2023-03-20T02:22:08;13.68;;;5.05;;
68457;SDS011;65384;52.016;5.428;2023-03-20T02:30:20;19.17;;;6.05;;
68457;SDS011;65384;52.016;5.428;2023-03-20T02:33:08;15.05;;;5.70;;
68457;SDS011;65384;52.016;5.428;2023-03-20T02:41:42;21.13;;;7.28;;
68457;SDS011;65384;52.016;5.428;2023-03-20T02:49:36;23.55;;;8.50;;
68457;SDS011;65384;52.016;5.428;2023-03-20T03:03:22;22.33;;;8.75;;
68457;SDS011;65384;52.016;5.428;2023-03-20T03:05:58;27.98;;;9.10;;
68457;SDS011;65384;52.016;5.428;2023-03-20T03:08:30;24.70;;;8.65;;
68457;SDS011;65384;52.016;5.428;2023-03-20T03:11:03;28.80;;;8.45;;
68457;SDS011;65384;52.016;5.428;2023-03-20T03:13:34;22.48;;;8.00;;
68457;SDS011;65384;52.016;5.428;2023-03-20T03:16:07;26.77;;;8.82;;
68457;SDS011;65384;52.016;5.428;2023-03-20T03:18:36;24.30;;;8.27;;
68457;SDS011;65384;52.016;5.428;2023-03-20T03:21:03;23.10;;;7.90;;
68457;SDS011;65384;52.016;5.428;2023-03-20T03:23:31;21.95;;;7.43;;
68457;SDS011;65384;52.016;5.428;2023-03-20T03:25:59;25.98;;;8.00;;
68457;SDS011;65384;52.016;5.428;2023-03-20T03:31:08;23.65;;;7.68;;
68457;SDS011;65384;52.016;5.428;2023-03-20T03:33:40;20.33;;;7.63;;
68457;SDS011;65384;52.016;5.428;2023-03-20T03:38:57;22.50;;;7.32;;
68457;SDS011;65384;52.016;5.428;2023-03-20T03:44:28;24.08;;;7.10;;
68457;SDS011;65384;52.016;5.428;2023-03-20T03:47:14;24.42;;;7.60;;
68457;SDS011;65384;52.016;5.428;2023-03-20T03:49:44;24.90;;;7.97;;
68457;SDS011;65384;52.016;5.428;2023-03-20T03:52:15;25.83;;;7.73;;
68457;SDS011;65384;52.016;5.428;2023-03-20T03:54:47;25.40;;;7.85;;
68457;SDS011;65384;52.016;5.428;2023-03-20T03:57:18;29.00;;;8.15;;
68457;SDS011;65384;52.016;5.428;2023-03-20T03:59:47;30.88;;;9.23;;
68457;SDS011;65384;52.016;5.428;2023-03-20T04:02:13;28.70;;;8.82;;
68457;SDS011;65384;52.016;5.428;2023-03-20T04:04:42;29.65;;;8.57;;
68457;SDS011;65384;52.016;5.428;2023-03-20T04:07:10;27.10;;;9.07;;
68457;SDS011;65384;52.016;5.428;2023-03-20T04:09:38;27.25;;;9.63;;
68457;SDS011;65384;52.016;5.428;2023-03-20T04:12:03;29.08;;;9.85;;
68457;SDS011;65384;52.016;5.428;2023-03-20T04:14:29;29.50;;;10.35;;
68457;SDS011;65384;52.016;5.428;2023-03-20T04:16:54;26.10;;;9.55;;
68457;SDS011;65384;52.016;5.428;2023-03-20T04:19:19;26.55;;;9.75;;
68457;SDS011;65384;52.016;5.428;2023-03-20T04:21:45;28.60;;;10.60;;
68457;SDS011;65384;52.016;5.428;2023-03-20T04:24:10;27.30;;;10.98;;
68457;SDS011;65384;52.016;5.428;2023-03-20T04:26:36;31.85;;;11.88;;
68457;SDS011;65384;52.016;5.428;2023-03-20T04:29:02;29.38;;;11.13;;
68457;SDS011;65384;52.016;5.428;2023-03-20T04:31:27;29.02;;;10.82;;
68457;SDS011;65384;52.016;5.428;2023-03-20T04:33:53;30.27;;;11.48;;
68457;SDS011;65384;52.016;5.428;2023-03-20T04:36:19;32.20;;;11.68;;
68457;SDS011;65384;52.016;5.428;2023-03-20T04:38:44;27.27;;;11.25;;
68457;SDS011;65384;52.016;5.428;2023-03-20T04:41:09;31.08;;;11.30;;
68457;SDS011;65384;52.016;5.428;2023-03-20T04:43:35;33.40;;;12.95;;
68457;SDS011;65384;52.016;5.428;2023-03-20T04:46:00;31.92;;;11.18;;
68457;SDS011;65384;52.016;5.428;2023-03-20T04:48:25;29.40;;;11.13;;
68457;SDS011;65384;52.016;5.428;2023-03-20T04:50:52;32.33;;;11.80;;
68457;SDS011;65384;52.016;5.428;2023-03-20T04:53:17;27.58;;;11.15;;
68457;SDS011;65384;52.016;5.428;2023-03-20T04:55:43;31.05;;;11.25;;
68457;SDS011;65384;52.016;5.428;2023-03-20T04:58:09;28.83;;;11.52;;
68457;SDS011;65384;52.016;5.428;2023-03-20T05:00:35;27.95;;;11.07;;
68457;SDS011;65384;52.016;5.428;2023-03-20T05:03:00;29.85;;;11.80;;
68457;SDS011;65384;52.016;5.428;2023-03-20T05:05:26;28.80;;;10.55;;
68457;SDS011;65384;52.016;5.428;2023-03-20T05:07:53;24.25;;;10.05;;
68457;SDS011;65384;52.016;5.428;2023-03-20T05:10:19;32.35;;;11.85;;
68457;SDS011;65384;52.016;5.428;2023-03-20T05:12:44;27.23;;;10.85;;
68457;SDS011;65384;52.016;5.428;2023-03-20T05:15:09;26.25;;;11.50;;
68457;SDS011;65384;52.016;5.428;2023-03-20T05:17:35;31.42;;;11.23;;
68457;SDS011;65384;52.016;5.428;2023-03-20T05:20:00;30.63;;;10.70;;
68457;SDS011;65384;52.016;5.428;2023-03-20T05:22:26;29.05;;;10.65;;
68457;SDS011;65384;52.016;5.428;2023-03-20T05:24:51;32.88;;;10.85;;
68457;SDS011;65384;52.016;5.428;2023-03-20T05:27:17;29.15;;;11.27;;
68457;SDS011;65384;52.016;5.428;2023-03-20T05:29:42;28.48;;;10.32;;
68457;SDS011;65384;52.016;5.428;2023-03-20T05:32:08;24.42;;;11.20;;
68457;SDS011;65384;52.016;5.428;2023-03-20T05:34:33;25.58;;;10.30;;
68457;SDS011;65384;52.016;5.428;2023-03-20T05:36:59;26.20;;;10.60;;
68457;SDS011;65384;52.016;5.428;2023-03-20T05:39:25;29.30;;;10.80;;
68457;SDS011;65384;52.016;5.428;2023-03-20T05:41:50;25.65;;;10.20;;
68457;SDS011;65384;52.016;5.428;2023-03-20T05:44:15;26.63;;;11.10;;
68457;SDS011;65384;52.016;5.428;2023-03-20T05:46:41;27.80;;;10.43;;
68457;SDS011;65384;52.016;5.428;2023-03-20T05:49:06;29.38;;;10.80;;
68457;SDS011;65384;52.016;5.428;2023-03-20T05:51:32;28.17;;;10.75;;
68457;SDS011;65384;52.016;5.428;2023-03-20T05:53:57;30.55;;;10.65;;
68457;SDS011;65384;52.016;5.428;2023-03-20T05:56:22;25.88;;;10.55;;
68457;SDS011;65384;52.016;5.428;2023-03-20T05:58:48;22.70;;;9.57;;
68457;SDS011;65384;52.016;5.428;2023-03-20T06:01:13;23.67;;;10.27;;
68457;SDS011;65384;52.016;5.428;2023-03-20T06:03:42;28.58;;;10.18;;
68457;SDS011;65384;52.016;5.428;2023-03-20T06:06:07;26.08;;;10.02;;
68457;SDS011;65384;52.016;5.428;2023-03-20T06:08:33;26.75;;;10.30;;
68457;SDS011;65384;52.016;5.428;2023-03-20T06:11:00;22.83;;;9.07;;
68457;SDS011;65384;52.016;5.428;2023-03-20T06:13:26;24.58;;;9.68;;
68457;SDS011;65384;52.016;5.428;2023-03-20T06:15:51;23.50;;;10.10;;
68457;SDS011;65384;52.016;5.428;2023-03-20T06:18:16;21.90;;;10.00;;
68457;SDS011;65384;52.016;5.428;2023-03-20T06:20:42;23.67;;;9.48;;
68457;SDS011;65384;52.016;5.428;2023-03-20T06:23:07;21.98;;;10.13;;
68457;SDS011;65384;52.016;5.428;2023-03-20T06:25:32;22.17;;;9.88;;
68457;SDS011;65384;52.016;5.428;2023-03-20T06:27:58;22.02;;;9.43;;
68457;SDS011;65384;52.016;5.428;2023-03-20T06:30:24;24.77;;;9.88;;
68457;SDS011;65384;52.016;5.428;2023-03-20T06:32:49;22.98;;;9.60;;
68457;SDS011;65384;52.016;5.428;2023-03-20T06:35:14;25.60;;;9.70;;
68457;SDS011;65384;52.016;5.428;2023-03-20T06:37:40;22.75;;;9.90;;
68457;SDS011;65384;52.016;5.428;2023-03-20T06:40:05;22.13;;;9.50;;
68457;SDS011;65384;52.016;5.428;2023-03-20T06:42:31;21.00;;;9.35;;
68457;SDS011;65384;52.016;5.428;2023-03-20T06:44:57;22.65;;;9.20;;
68457;SDS011;65384;52.016;5.428;2023-03-20T06:47:22;19.65;;;9.02;;
68457;SDS011;65384;52.016;5.428;2023-03-20T06:49:47;21.98;;;9.27;;
68457;SDS011;65384;52.016;5.428;2023-03-20T06:52:17;26.42;;;8.98;;
68457;SDS011;65384;52.016;5.428;2023-03-20T06:54:43;32.10;;;9.55;;
68457;SDS011;65384;52.016;5.428;2023-03-20T06:57:09;22.23;;;8.65;;
68457;SDS011;65384;52.016;5.428;2023-03-20T06:59:34;25.48;;;9.95;;
68457;SDS011;65384;52.016;5.428;2023-03-20T07:02:00;20.52;;;9.30;;
68457;SDS011;65384;52.016;5.428;2023-03-20T07:04:26;19.92;;;8.82;;
68457;SDS011;65384;52.016;5.428;2023-03-20T07:06:51;20.95;;;9.18;;
68457;SDS011;65384;52.016;5.428;2023-03-20T07:09:17;18.85;;;7.57;;
68457;SDS011;65384;52.016;5.428;2023-03-20T07:11:42;23.75;;;9.52;;
68457;SDS011;65384;52.016;5.428;2023-03-20T07:14:09;23.50;;;9.07;;
68457;SDS011;65384;52.016;5.428;2023-03-20T07:16:34;21.70;;;8.60;;
68457;SDS011;65384;52.016;5.428;2023-03-20T07:19:00;24.08;;;8.77;;
68457;SDS011;65384;52.016;5.428;2023-03-20T07:21:26;26.80;;;9.25;;
68457;SDS011;65384;52.016;5.428;2023-03-20T07:23:52;28.10;;;9.40;;
68457;SDS011;65384;52.016;5.428;2023-03-20T07:26:17;25.63;;;9.07;;
68457;SDS011;65384;52.016;5.428;2023-03-20T07:28:42;25.48;;;9.27;;
68457;SDS011;65384;52.016;5.428;2023-03-20T07:31:10;24.75;;;9.27;;
68457;SDS011;65384;52.016;5.428;2023-03-20T07:33:43;21.92;;;8.55;;
68457;SDS011;65384;52.016;5.428;2023-03-20T07:36:08;24.35;;;9.13;;
68457;SDS011;65384;52.016;5.428;2023-03-20T07:38:34;21.52;;;8.07;;
68457;SDS011;65384;52.016;5.428;2023-03-20T07:40:59;25.13;;;8.80;;
68457;SDS011;65384;52.016;5.428;2023-03-20T07:43:24;25.67;;;8.75;;
68457;SDS011;65384;52.016;5.428;2023-03-20T07:45:50;21.58;;;8.30;;
68457;SDS011;65384;52.016;5.428;2023-03-20T07:48:15;20.60;;;8.20;;
68457;SDS011;65384;52.016;5.428;2023-03-20T07:50:41;21.75;;;8.73;;
68457;SDS011;65384;52.016;5.428;2023-03-20T07:53:06;24.90;;;8.70;;
68457;SDS011;65384;52.016;5.428;2023-03-20T07:55:31;21.17;;;8.07;;
68457;SDS011;65384;52.016;5.428;2023-03-20T07:57:57;18.55;;;7.47;;
68457;SDS011;65384;52.016;5.428;2023-03-20T08:00:22;18.83;;;7.10;;
68457;SDS011;65384;52.016;5.428;2023-03-20T08:02:48;22.67;;;7.40;;
68457;SDS011;65384;52.016;5.428;2023-03-20T08:05:13;16.67;;;6.82;;
68457;SDS011;65384;52.016;5.428;2023-03-20T08:07:39;19.75;;;7.50;;
68457;SDS011;65384;52.016;5.428;2023-03-20T08:10:04;16.60;;;7.22;;
68457;SDS011;65384;52.016;5.428;2023-03-20T08:12:30;15.02;;;6.43;;
68457;SDS011;65384;52.016;5.428;2023-03-20T08:14:55;21.40;;;6.90;;
68457;SDS011;65384;52.016;5.428;2023-03-20T08:17:21;23.90;;;6.93;;
68457;SDS011;65384;52.016;5.428;2023-03-20T08:19:46;19.20;;;6.72;;
68457;SDS011;65384;52.016;5.428;2023-03-20T08:22:11;15.85;;;6.03;;
68457;SDS011;65384;52.016;5.428;2023-03-20T08:24:37;19.05;;;6.90;;
68457;SDS011;65384;52.016;5.428;2023-03-20T08:27:02;15.30;;;5.93;;
68457;SDS011;65384;52.016;5.428;2023-03-20T08:29:27;15.35;;;5.85;;
68457;SDS011;65384;52.016;5.428;2023-03-20T08:31:53;21.27;;;6.70;;
68457;SDS011;65384;52.016;5.428;2023-03-20T08:34:18;19.05;;;6.60;;
68457;SDS011;65384;52.016;5.428;2023-03-20T08:36:44;16.58;;;6.35;;
68457;SDS011;65384;52.016;5.428;2023-03-20T08:39:09;18.75;;;6.80;;
68457;SDS011;65384;52.016;5.428;2023-03-20T08:41:38;16.67;;;6.30;;
68457;SDS011;65384;52.016;5.428;2023-03-20T08:44:05;15.93;;;6.25;;
68457;SDS011;65384;52.016;5.428;2023-03-20T08:46:31;19.30;;;5.93;;
68457;SDS011;65384;52.016;5.428;2023-03-20T08:48:57;17.20;;;6.05;;
68457;SDS011;65384;52.016;5.428;2023-03-20T08:51:23;14.48;;;5.90;;
68457;SDS011;65384;52.016;5.428;2023-03-20T08:53:49;16.75;;;6.05;;
68457;SDS011;65384;52.016;5.428;2023-03-20T08:56:14;19.35;;;6.05;;
68457;SDS011;65384;52.016;5.428;2023-03-20T08:58:39;15.80;;;5.82;;
68457;SDS011;65384;52.016;5.428;2023-03-20T09:01:05;15.02;;;5.43;;
68457;SDS011;65384;52.016;5.428;2023-03-20T09:03:32;16.35;;;5.78;;
68457;SDS011;65384;52.016;5.428;2023-03-20T09:05:58;13.70;;;4.95;;
68457;SDS011;65384;52.016;5.428;2023-03-20T09:08:23;12.05;;;5.28;;
68457;SDS011;65384;52.016;5.428;2023-03-20T09:10:49;16.35;;;6.13;;
68457;SDS011;65384;52.016;5.428;2023-03-20T09:13:14;13.80;;;5.75;;
68457;SDS011;65384;52.016;5.428;2023-03-20T09:15:40;13.07;;;5.15;;
68457;SDS011;65384;52.016;5.428;2023-03-20T09:18:05;19.50;;;6.03;;
68457;SDS011;65384;52.016;5.428;2023-03-20T09:20:30;18.38;;;5.82;;
68457;SDS011;65384;52.016;5.428;2023-03-20T09:22:56;16.13;;;5.88;;
68457;SDS011;65384;52.016;5.428;2023-03-20T09:25:21;19.17;;;6.38;;
68457;SDS011;65384;52.016;5.428;2023-03-20T09:27:49;17.42;;;5.95;;
68457;SDS011;65384;52.016;5.428;2023-03-20T09:30:16;12.27;;;5.00;;
68457;SDS011;65384;52.016;5.428;2023-03-20T09:32:41;20.83;;;6.28;;
68457;SDS011;65384;52.016;5.428;2023-03-20T09:35:06;13.75;;;5.97;;
68457;SDS011;65384;52.016;5.428;2023-03-20T09:37:32;18.55;;;6.05;;
68457;SDS011;65384;52.016;5.428;2023-03-20T09:39:57;15.15;;;4.70;;
68457;SDS011;65384;52.016;5.428;2023-03-20T09:45:06;17.13;;;4.97;;
68457;SDS011;65384;52.016;5.428;2023-03-20T09:55:04;12.88;;;5.32;;
68457;SDS011;65384;52.016;5.428;2023-03-20T09:57:40;22.00;;;5.32;;
68457;SDS011;65384;52.016;5.428;2023-03-20T10:02:57;10.55;;;4.70;;
68457;SDS011;65384;52.016;5.428;2023-03-20T10:05:34;12.43;;;4.38;;
68457;SDS011;65384;52.016;5.428;2023-03-20T10:08:04;13.45;;;4.82;;
68457;SDS011;65384;52.016;5.428;2023-03-20T10:16:02;9.77;;;4.65;;
68457;SDS011;65384;52.016;5.428;2023-03-20T10:18:36;14.38;;;5.03;;
68457;SDS011;65384;52.016;5.428;2023-03-20T10:21:15;11.27;;;3.80;;
68457;SDS011;65384;52.016;5.428;2023-03-20T10:24:16;12.75;;;5.07;;
68457;SDS011;65384;52.016;5.428;2023-03-20T10:26:49;13.00;;;4.97;;
68457;SDS011;65384;52.016;5.428;2023-03-20T10:29:19;12.45;;;4.57;;
68457;SDS011;65384;52.016;5.428;2023-03-20T10:32:00;11.23;;;4.18;;
68457;SDS011;65384;52.016;5.428;2023-03-20T10:37:22;13.02;;;4.13;;
68457;SDS011;65384;52.016;5.428;2023-03-20T10:42:39;15.38;;;3.90;;
68457;SDS011;65384;52.016;5.428;2023-03-20T10:45:24;12.90;;;4.47;;
68457;SDS011;65384;52.016;5.428;2023-03-20T10:47:51;12.02;;;3.13;;
68457;SDS011;65384;52.016;5.428;2023-03-20T10:50:19;11.20;;;4.07;;
68457;SDS011;65384;52.016;5.428;2023-03-20T10:52:48;14.07;;;3.70;;
68457;SDS011;65384;52.016;5.428;2023-03-20T10:55:17;16.42;;;4.20;;
68457;SDS011;65384;52.016;5.428;2023-03-20T10:57:55;10.95;;;3.90;;
68457;SDS011;65384;52.016;5.428;2023-03-20T11:00:24;13.75;;;4.40;;
68457;SDS011;65384;52.016;5.428;2023-03-20T11:02:51;12.40;;;4.47;;
68457;SDS011;65384;52.016;5.428;2023-03-20T11:05:32;12.82;;;4.30;;
68457;SDS011;65384;52.016;5.428;2023-03-20T11:10:44;15.00;;;4.53;;
68457;SDS011;65384;52.016;5.428;2023-03-20T11:13:14;17.25;;;4.43;;
68457;SDS011;65384;52.016;5.428;2023-03-20T11:15:43;15.35;;;4.35;;
68457;SDS011;65384;52.016;5.428;2023-03-20T11:18:10;12.63;;;4.78;;
68457;SDS011;65384;52.016;5.428;2023-03-20T11:20:44;11.80;;;4.40;;
68457;SDS011;65384;52.016;5.428;2023-03-20T11:23:15;13.33;;;5.13;;
68457;SDS011;65384;52.016;5.428;2023-03-20T11:30:59;17.13;;;5.93;;
68457;SDS011;65384;52.016;5.428;2023-03-20T11:33:28;17.33;;;5.57;;
68457;SDS011;65384;52.016;5.428;2023-03-20T11:35:54;21.55;;;6.47;;
68457;SDS011;65384;52.016;5.428;2023-03-20T11:38:21;27.10;;;6.65;;
68457;SDS011;65384;52.016;5.428;2023-03-20T11:40:47;17.65;;;6.05;;
68457;SDS011;65384;52.016;5.428;2023-03-20T11:43:20;18.88;;;7.03;;
68457;SDS011;65384;52.016;5.428;2023-03-20T11:45:57;19.83;;;6.63;;
68457;SDS011;65384;52.016;5.428;2023-03-20T11:48:25;18.48;;;7.35;;
68457;SDS011;65384;52.016;5.428;2023-03-20T11:53:57;19.38;;;6.80;;
68457;SDS011;65384;52.016;5.428;2023-03-20T11:56:29;17.90;;;6.72;;
68457;SDS011;65384;52.016;5.428;2023-03-20T11:59:05;19.90;;;7.43;;
68457;SDS011;65384;52.016;5.428;2023-03-20T12:01:41;22.30;;;7.28;;
68457;SDS011;65384;52.016;5.428;2023-03-20T12:04:14;15.82;;;5.72;;
68457;SDS011;65384;52.016;5.428;2023-03-20T12:06:43;20.55;;;7.07;;
68457;SDS011;65384;52.016;5.428;2023-03-20T12:11:58;20.27;;;7.35;;
68457;SDS011;65384;52.016;5.428;2023-03-20T12:14:33;22.75;;;8.13;;
68457;SDS011;65384;52.016;5.428;2023-03-20T12:19:57;19.27;;;8.25;;
68457;SDS011;65384;52.016;5.428;2023-03-20T12:22:29;20.73;;;7.60;;
68457;SDS011;65384;52.016;5.428;2023-03-20T12:25:00;22.45;;;7.85;;
68457;SDS011;65384;52.016;5.428;2023-03-20T12:27:32;17.80;;;7.07;;
68457;SDS011;65384;52.016;5.428;2023-03-20T12:32:39;19.05;;;8.65;;
68457;SDS011;65384;52.016;5.428;2023-03-20T12:35:27;17.35;;;6.60;;
68457;SDS011;65384;52.016;5.428;2023-03-20T12:37:54;14.50;;;6.28;;
68457;SDS011;65384;52.016;5.428;2023-03-20T12:40:19;21.83;;;8.23;;
68457;SDS011;65384;52.016;5.428;2023-03-20T12:43:14;18.88;;;6.93;;
68457;SDS011;65384;52.016;5.428;2023-03-20T12:45:53;27.85;;;8.60;;
68457;SDS011;65384;52.016;5.428;2023-03-20T12:48:35;24.15;;;8.48;;
68457;SDS011;65384;52.016;5.428;2023-03-20T12:54:09;23.48;;;9.25;;
68457;SDS011;65384;52.016;5.428;2023-03-20T13:02:03;26.67;;;8.85;;
68457;SDS011;65384;52.016;5.428;2023-03-20T13:04:52;21.63;;;9.13;;
68457;SDS011;65384;52.016;5.428;2023-03-20T13:07:20;24.92;;;8.88;;
68457;SDS011;65384;52.016;5.428;2023-03-20T13:15:50;14.77;;;7.45;;
68457;SDS011;65384;52.016;5.428;2023-03-20T13:21:09;26.02;;;9.43;;
68457;SDS011;65384;52.016;5.428;2023-03-20T13:23:43;22.25;;;8.88;;
68457;SDS011;65384;52.016;5.428;2023-03-20T13:26:15;25.73;;;8.90;;
68457;SDS011;65384;52.016;5.428;2023-03-20T13:28:53;25.90;;;9.35;;
68457;SDS011;65384;52.016;5.428;2023-03-20T13:37:27;21.98;;;6.32;;
68457;SDS011;65384;52.016;5.428;2023-03-20T13:40:02;28.63;;;9.20;;
68457;SDS011;65384;52.016;5.428;2023-03-20T13:42:41;26.73;;;9.23;;
68457;SDS011;65384;52.016;5.428;2023-03-20T13:47:49;20.10;;;8.10;;
68457;SDS011;65384;52.016;5.428;2023-03-20T13:52:58;20.02;;;8.80;;
68457;SDS011;65384;52.016;5.428;2023-03-20T13:55:39;23.65;;;9.27;;
68457;SDS011;65384;52.016;5.428;2023-03-20T14:01:16;24.02;;;9.65;;
68457;SDS011;65384;52.016;5.428;2023-03-20T14:03:51;32.97;;;9.90;;
68457;SDS011;65384;52.016;5.428;2023-03-20T14:08:48;23.98;;;10.38;;
68457;SDS011;65384;52.016;5.428;2023-03-20T14:13:55;29.95;;;10.55;;
68457;SDS011;65384;52.016;5.428;2023-03-20T14:16:25;25.38;;;9.65;;
68457;SDS011;65384;52.016;5.428;2023-03-20T14:19:03;24.90;;;9.90;;
68457;SDS011;65384;52.016;5.428;2023-03-20T14:21:46;22.90;;;9.10;;
68457;SDS011;65384;52.016;5.428;2023-03-20T14:24:13;29.42;;;9.93;;
68457;SDS011;65384;52.016;5.428;2023-03-20T14:26:40;17.15;;;7.82;;
68457;SDS011;65384;52.016;5.428;2023-03-20T14:31:33;27.15;;;10.07;;
68457;SDS011;65384;52.016;5.428;2023-03-20T14:36:56;24.73;;;9.93;;
68457;SDS011;65384;52.016;5.428;2023-03-20T14:50:13;30.50;;;11.40;;
68457;SDS011;65384;52.016;5.428;2023-03-20T14:53:01;29.75;;;9.82;;
68457;SDS011;65384;52.016;5.428;2023-03-20T14:55:33;27.90;;;11.07;;
68457;SDS011;65384;52.016;5.428;2023-03-20T15:01:06;23.27;;;9.73;;
68457;SDS011;65384;52.016;5.428;2023-03-20T15:03:40;23.42;;;9.65;;
68457;SDS011;65384;52.016;5.428;2023-03-20T15:06:06;25.52;;;8.80;;
68457;SDS011;65384;52.016;5.428;2023-03-20T15:08:34;25.98;;;9.40;;
68457;SDS011;65384;52.016;5.428;2023-03-20T15:11:04;20.85;;;9.30;;
68457;SDS011;65384;52.016;5.428;2023-03-20T15:13:32;24.33;;;9.25;;
68457;SDS011;65384;52.016;5.428;2023-03-20T15:16:03;24.38;;;9.73;;
68457;SDS011;65384;52.016;5.428;2023-03-20T15:18:34;18.73;;;7.43;;
68457;SDS011;65384;52.016;5.428;2023-03-20T15:21:02;19.55;;;8.10;;
68457;SDS011;65384;52.016;5.428;2023-03-20T15:23:27;24.77;;;9.05;;
68457;SDS011;65384;52.016;5.428;2023-03-20T15:25:53;17.17;;;7.72;;
68457;SDS011;65384;52.016;5.428;2023-03-20T15:30:55;24.77;;;8.75;;
68457;SDS011;65384;52.016;5.428;2023-03-20T15:33:23;24.33;;;10.10;;
68457;SDS011;65384;52.016;5.428;2023-03-20T15:35:51;23.02;;;8.77;;
68457;SDS011;65384;52.016;5.428;2023-03-20T15:38:17;22.25;;;9.05;;
68457;SDS011;65384;52.016;5.428;2023-03-20T15:40:42;22.02;;;9.18;;
68457;SDS011;65384;52.016;5.428;2023-03-20T15:43:12;26.27;;;9.68;;
68457;SDS011;65384;52.016;5.428;2023-03-20T15:45:40;24.73;;;10.25;;
68457;SDS011;65384;52.016;5.428;2023-03-20T15:48:19;24.70;;;9.88;;
68457;SDS011;65384;52.016;5.428;2023-03-20T15:50:48;25.75;;;11.15;;
68457;SDS011;65384;52.016;5.428;2023-03-20T15:53:32;24.58;;;8.60;;
68457;SDS011;65384;52.016;5.428;2023-03-20T15:56:06;22.42;;;7.45;;
68457;SDS011;65384;52.016;5.428;2023-03-20T15:58:35;29.60;;;10.25;;
68457;SDS011;65384;52.016;5.428;2023-03-20T16:01:02;26.15;;;9.27;;
68457;SDS011;65384;52.016;5.428;2023-03-20T16:03:28;27.55;;;9.77;;
68457;SDS011;65384;52.016;5.428;2023-03-20T16:05:56;26.63;;;11.25;;
68457;SDS011;65384;52.016;5.428;2023-03-20T16:08:24;28.88;;;10.80;;
68457;SDS011;65384;52.016;5.428;2023-03-20T16:11:00;27.38;;;9.48;;
68457;SDS011;65384;52.016;5.428;2023-03-20T16:13:29;28.95;;;9.90;;
68457;SDS011;65384;52.016;5.428;2023-03-20T16:15:57;29.65;;;10.07;;
68457;SDS011;65384;52.016;5.428;2023-03-20T16:18:23;29.98;;;9.70;;
68457;SDS011;65384;52.016;5.428;2023-03-20T16:20:50;29.60;;;10.35;;
68457;SDS011;65384;52.016;5.428;2023-03-20T16:23:29;27.75;;;9.63;;
68457;SDS011;65384;52.016;5.428;2023-03-20T16:26:07;23.75;;;8.50;;
68457;SDS011;65384;52.016;5.428;2023-03-20T16:28:36;30.45;;;10.25;;
68457;SDS011;65384;52.016;5.428;2023-03-20T16:31:10;30.70;;;9.73;;
68457;SDS011;65384;52.016;5.428;2023-03-20T16:33:39;28.95;;;10.25;;
68457;SDS011;65384;52.016;5.428;2023-03-20T16:36:05;25.80;;;10.60;;
68457;SDS011;65384;52.016;5.428;2023-03-20T16:38:32;28.45;;;10.18;;
68457;SDS011;65384;52.016;5.428;2023-03-20T16:43:51;28.50;;;11.13;;
68457;SDS011;65384;52.016;5.428;2023-03-20T16:46:19;30.65;;;11.10;;
68457;SDS011;65384;52.016;5.428;2023-03-20T16:48:46;48.47;;;12.43;;
68457;SDS011;65384;52.016;5.428;2023-03-20T16:51:19;30.30;;;11.05;;
68457;SDS011;65384;52.016;5.428;2023-03-20T16:53:56;25.55;;;9.02;;
68457;SDS011;65384;52.016;5.428;2023-03-20T16:56:24;31.15;;;11.18;;
68457;SDS011;65384;52.016;5.428;2023-03-20T16:58:56;25.05;;;10.50;;
68457;SDS011;65384;52.016;5.428;2023-03-20T17:01:22;30.48;;;11.68;;
68457;SDS011;65384;52.016;5.428;2023-03-20T17:03:51;25.92;;;10.55;;
68457;SDS011;65384;52.016;5.428;2023-03-20T17:08:53;33.20;;;11.88;;
68457;SDS011;65384;52.016;5.428;2023-03-20T17:11:21;30.73;;;11.15;;
68457;SDS011;65384;52.016;5.428;2023-03-20T17:13:51;27.83;;;11.45;;